South Britain, Connecticut
Current Conditions -  °F | °C
As of 10:45 AM on Thursday 18 Dec 2014 (Local Time) from KOXC Reporting Station
Overcast Overcast  
Wind Chill: 32°   Ceiling: 3000
Heat Index: 36°   Visibility: 10mi
Dew Point: 21°   Wind: 5mph
Humidity: 56%   Direction: 280°W
Pressure: 29.91"   Gusts: NA
Location:  41.47°N, 73.25°W
Report Text: KOXC 181545Z 28004KT 10SM OVC030 02/M06 A2991
Loading
Personal Weather Stations






























Interactive Weather Map New forecast layout! Learn more

10-Day Weather Forecast

Advertisements
Track Severe Weather on mobile